createdAt,value
2022-09-23T00:05:35.335Z,957.61
2022-09-23T00:20:37.536Z,957.58
2022-09-23T00:35:39.721Z,957.59
2022-09-23T00:50:41.934Z,957.63
2022-09-23T01:05:44.131Z,957.65
2022-09-23T01:20:46.301Z,957.69
2022-09-23T01:35:48.513Z,957.81
2022-09-23T01:50:50.968Z,958.01
2022-09-23T02:05:53.186Z,958.17
2022-09-23T02:20:55.401Z,958.31
2022-09-23T02:35:57.654Z,958.45
2022-09-23T02:50:59.863Z,958.64
2022-09-23T03:06:02.057Z,958.86
2022-09-23T03:21:04.301Z,959.11
2022-09-23T03:36:06.523Z,959.23
2022-09-23T03:51:08.718Z,959.39
2022-09-23T04:06:10.922Z,959.48
2022-09-23T04:21:13.153Z,959.68
2022-09-23T04:36:15.472Z,959.85
2022-09-23T04:51:17.695Z,960.05
2022-09-23T05:06:19.924Z,960.25
2022-09-23T05:21:22.361Z,960.28
2022-09-23T05:36:24.563Z,960.34
2022-09-23T05:51:30.633Z,960.52
2022-09-23T06:06:33.239Z,960.62
2022-09-23T06:21:35.469Z,960.9
2022-09-23T06:36:43.187Z,961.1
2022-09-23T06:51:47.048Z,961.22
2022-09-23T07:06:49.238Z,961.44
2022-09-23T07:21:51.689Z,961.63
2022-09-23T07:36:53.951Z,961.8
2022-09-23T07:51:56.320Z,961.91
2022-09-23T08:06:58.509Z,962.14
2022-09-23T08:22:00.737Z,962.46
2022-09-23T08:37:02.941Z,962.64
2022-09-23T08:52:05.196Z,962.7
2022-09-23T09:07:34.554Z,962.9
2022-09-23T09:22:37.927Z,962.84
2022-09-23T09:37:40.143Z,963.02
2022-09-23T09:52:43.772Z,963.29
2022-09-23T10:07:45.968Z,963.52
2022-09-23T10:22:48.258Z,963.49
2022-09-23T10:37:50.446Z,963.62
2022-09-23T10:52:52.844Z,963.87
2022-09-23T11:07:55.060Z,964.06
2022-09-23T11:22:57.222Z,964.3
2022-09-23T11:37:59.417Z,964.54
2022-09-23T11:53:01.650Z,964.65
2022-09-23T12:08:04.037Z,964.76
2022-09-23T12:23:06.283Z,964.73
2022-09-23T12:38:08.582Z,964.59
2022-09-23T12:53:11.036Z,965
2022-09-23T13:08:13.371Z,965.34
2022-09-23T13:23:15.713Z,965.56
2022-09-23T13:38:17.987Z,965.83
2022-09-23T13:53:20.336Z,965.79
2022-09-23T14:08:22.791Z,965.92
2022-09-23T14:23:25.118Z,965.98
2022-09-23T14:38:27.407Z,966.02
2022-09-23T14:53:29.739Z,966.23
2022-09-23T15:08:32.023Z,966.42
2022-09-23T15:23:34.309Z,966.83
2022-09-23T15:38:36.560Z,966.94
2022-09-23T15:53:38.914Z,967.07
2022-09-23T16:08:41.216Z,967.23
2022-09-23T16:23:43.442Z,967.17
2022-09-23T16:38:45.802Z,967.18
2022-09-23T16:53:48.085Z,967.23
2022-09-23T17:08:50.360Z,967.3
2022-09-23T17:23:53.960Z,967.4
2022-09-23T17:38:56.278Z,967.37
2022-09-23T17:53:58.548Z,967.19
2022-09-23T18:09:00.938Z,967.15
2022-09-23T18:24:28.086Z,967.09
2022-09-23T18:39:33.667Z,967.06
2022-09-23T18:54:35.986Z,966.99
2022-09-23T19:09:38.276Z,966.92
2022-09-23T19:24:40.617Z,966.56
2022-09-23T19:39:43.024Z,966.22
2022-09-23T19:54:45.335Z,966.3
2022-09-23T20:09:47.586Z,966.24
2022-09-23T20:24:49.904Z,966.07
2022-09-23T20:39:52.244Z,966.04
2022-09-23T20:54:54.592Z,966
2022-09-23T21:09:56.871Z,965.94
2022-09-23T21:25:26.922Z,965.76
2022-09-23T21:40:30.157Z,965.69
2022-09-23T21:55:32.744Z,965.48
2022-09-23T22:10:35.045Z,965.33
2022-09-23T22:25:37.303Z,965.38
2022-09-23T22:40:39.761Z,965.23
2022-09-23T22:55:42.269Z,965.19
2022-09-23T23:10:44.543Z,965.2
2022-09-23T23:25:46.984Z,965.2
2022-09-23T23:40:49.352Z,965.23
2022-09-23T23:55:51.655Z,965.01
